Date,TemperatureHighF,TemperatureAvgF,TemperatureLowF,DewpointHighF,DewpointAvgF,DewpointLowF,HumidityHigh,HumidityAvg,HumidityLow,PressureMaxIn,PressureMinIn,WindSpeedMaxMPH,WindSpeedAvgMPH,GustSpeedMaxMPH,PrecipitationSumIn
2013-1-1,34.2,31.6,29.8,29.4,26.6,18.8,87,82,53,30.27,30.15,7,2,17,0.00
2013-1-2,29.8,24.9,19.9,26.5,17.1,11.9,87,72,54,30.39,30.21,3,1,8,0.00
2013-1-3,35.8,25.9,17.2,18.2,14.8,8.2,76,63,46,30.42,30.33,5,1,11,0.14
2013-1-4,29.3,27.3,26.1,18.7,15.6,13.3,65,61,55,30.48,30.41,6,3,20,0.00
2013-1-5,40.3,30.2,22.8,22.7,18.3,14.6,72,61,47,30.56,30.36,4,1,11,0.06
2013-1-6,38.1,35.5,31.8,28.3,24.0,20.0,85,63,56,30.41,30.23,5,2,13,0.00
2013-1-7,34.2,28.2,22.5,27.8,20.8,15.8,85,74,61,30.64,30.41,3,1,8,0.05
2013-1-8,51.4,38.2,24.1,28.3,21.2,13.6,72,51,34,30.57,30.44,5,1,12,0.00
2013-1-9,54.0,44.7,31.8,43.3,35.4,21.0,90,71,52,30.69,30.47,8,2,19,0.09
2013-1-10,53.8,42.2,30.9,41.9,34.5,27.5,92,75,47,30.74,30.44,2,0,7,0.00
2013-1-11,63.1,56.2,50.9,53.3,46.0,34.0,90,70,46,30.44,30.21,10,3,25,0.13
2013-1-12,68.7,61.5,57.7,56.3,52.4,49.4,83,72,58,30.35,30.20,5,2,12,0.00
2013-1-13,68.4,62.9,54.3,54.0,49.8,45.3,87,63,50,30.25,30.12,6,2,17,0.11
2013-1-14,58.3,42.3,33.8,54.6,39.6,29.8,94,90,84,30.52,30.16,6,2,14,0.44
2013-1-15,35.1,32.9,31.1,31.6,29.8,28.5,90,88,85,30.49,30.21,5,1,11,0.50
2013-1-16,48.9,36.3,32.7,46.2,33.3,29.8,94,89,85,30.26,30.03,7,2,15,0.44
2013-1-17,35.2,32.4,29.1,31.9,27.5,24.9,88,82,77,30.38,30.24,4,1,9,0.00
2013-1-18,36.5,28.4,19.6,25.2,11.0,0.7,85,51,22,30.66,30.38,5,1,11,0.00
2013-1-19,57.6,44.5,36.1,49.7,12.3,1.3,75,28,20,30.49,29.63,8,4,24,4.31
2013-1-20,46.4,39.2,25.5,28.3,13.9,-0.3,58,37,21,29.94,29.77,8,4,27,0.00
2013-1-21,35.2,25.4,14.4,12.4,6.7,-3.0,61,45,27,29.93,29.71,8,3,24,0.01
2013-1-22,17.8,10.7,5.0,-3.0,-12.0,-16.2,46,35,22,30.05,29.86,6,3,20,0.00
2013-1-23,18.9,12.4,5.5,7.9,-5.7,-13.5,67,45,23,30.08,29.84,4,1,13,0.00
2013-1-24,23.9,15.0,4.3,7.9,0.2,-11.1,71,53,27,30.28,29.83,5,1,13,0.01
2013-1-25,23.5,15.7,3.7,17.1,4.8,-11.4,78,62,43,30.25,29.80,3,1,11,0.01
2013-1-26,27.7,23.7,20.7,19.9,16.2,14.1,79,73,62,30.21,29.91,4,1,11,0.00
2013-1-27,39.2,29.1,19.4,22.1,15.8,11.4,71,58,42,30.27,30.10,3,0,5,0.14
2013-1-28,55.4,46.2,34.0,49.1,40.2,20.1,93,80,51,30.10,29.93,7,3,17,0.57
2013-1-29,70.9,59.1,50.9,51.6,49.3,44.1,94,72,47,29.96,29.72,7,2,14,0.11
2013-1-30,72.5,60.1,45.7,53.4,49.9,41.3,89,71,47,29.72,29.22,15,6,42,1.25
2013-1-31,45.5,28.5,23.2,41.3,19.8,10.9,85,70,54,29.72,29.19,8,2,29,0.09
2013-2-1,24.1,13.5,5.2,18.5,1.9,-7.4,81,60,42,30.13,29.63,6,2,21,0.01
2013-2-2,27.3,18.1,5.0,20.4,6.7,-7.9,80,61,34,30.11,29.78,7,2,17,0.00
2013-2-3,29.1,24.0,18.9,22.5,17.3,9.1,81,75,65,29.88,29.65,5,2,14,0.00
2013-2-4,35.4,26.1,18.0,28.7,16.4,8.9,85,67,44,29.91,29.69,7,2,15,0.12
2013-2-5,37.0,34.3,32.0,33.0,30.3,28.4,87,85,81,29.76,29.67,5,2,17,0.41
2013-2-6,34.7,31.1,24.8,30.6,25.1,19.5,87,78,65,30.10,29.76,3,0,8,0.08
2013-2-7,54.5,38.5,24.4,32.1,26.7,19.5,82,64,33,30.08,29.79,4,1,12,0.02
2013-2-8,44.4,36.5,26.2,37.0,28.8,17.5,88,74,66,30.00,29.66,6,1,17,0.15
2013-2-9,35.1,26.4,22.3,17.5,13.9,10.3,76,59,42,30.18,30.00,3,0,9,0.00
2013-2-10,62.6,39.9,19.8,37.9,17.0,7.7,81,43,22,30.13,29.80,7,1,18,0.01
2013-2-11,63.3,53.8,42.4,48.0,34.4,16.7,79,51,22,29.81,29.62,9,5,29,0.01
2013-2-12,51.8,40.8,34.0,26.9,21.9,16.2,64,48,27,29.93,29.75,7,3,18,0.00
2013-2-13,47.8,34.9,30.0,33.2,26.1,18.0,95,72,34,29.77,29.47,5,1,12,0.08
2013-2-14,44.6,35.6,27.5,31.5,27.4,21.9,95,73,53,29.83,29.71,6,2,18,0.09
2013-2-15,40.6,34.6,28.9,30.6,29.0,26.1,92,80,65,29.89,29.77,3,1,7,0.07
2013-2-16,29.1,24.9,18.7,26.1,17.2,11.2,89,73,51,29.86,29.74,4,0,11,0.01
2013-2-17,24.8,16.9,12.0,15.1,4.2,-1.0,81,58,42,30.05,29.74,6,1,17,0.00
2013-2-18,51.8,31.3,4.6,31.5,13.1,-5.9,63,48,31,30.08,29.77,7,2,16,0.14
2013-2-19,46.6,39.4,26.8,38.0,27.5,13.4,86,64,37,29.80,29.58,11,4,27,0.15
2013-2-20,27.1,22.6,17.6,16.3,10.5,3.4,77,60,47,30.03,29.80,6,3,21,0.01
2013-2-21,28.4,21.0,16.3,13.7,9.0,3.4,64,59,51,30.11,29.97,4,2,10,0.00
2013-2-22,53.4,39.9,24.3,41.7,31.2,13.5,85,71,54,30.01,29.80,4,1,14,0.09
2013-2-23,55.8,46.4,36.5,42.0,37.2,29.2,84,71,51,29.82,29.67,5,1,12,0.00
2013-2-24,41.2,32.7,22.6,30.3,22.0,12.7,79,65,45,29.96,29.69,6,2,16,0.02
2013-2-25,46.6,31.9,18.7,22.9,16.4,10.3,74,54,32,30.00,29.81,4,1,12,0.01
2013-2-26,50.9,42.4,34.0,38.0,29.6,15.5,79,61,43,29.85,29.35,9,3,26,0.21
2013-2-27,44.1,38.4,31.5,39.0,33.0,28.1,90,81,65,29.57,29.41,6,2,16,0.20
2013-2-28,31.8,30.7,29.5,28.3,26.5,25.1,89,84,79,29.67,29.51,0,0,0,0.01
2013-3-1,32.0,29.3,25.3,28.3,23.3,17.2,89,78,65,29.77,29.65,0,0,0,0.00
2013-3-2,30.2,25.6,23.5,20.4,17.2,12.9,78,70,53,29.77,29.72,3,0,8,0.00
2013-3-3,31.3,23.5,20.7,21.8,15.5,11.5,77,71,61,29.84,29.75,4,1,11,0.02
2013-3-4,38.1,27.2,19.2,15.4,11.8,7.7,75,53,32,29.95,29.83,5,1,14,0.17
2013-3-5,53.4,37.9,26.6,35.1,25.5,11.3,85,61,47,29.89,29.42,5,1,17,0.32
2013-3-6,35.8,31.3,28.0,30.2,27.1,23.3,87,84,79,29.95,29.44,3,0,8,0.02
2013-3-7,37.9,33.0,30.9,30.4,27.3,25.0,87,79,64,30.08,29.93,3,1,9,0.33
2013-3-8,35.2,31.4,27.1,26.0,21.9,18.9,78,68,57,30.20,30.06,7,2,15,0.06
2013-3-9,61.7,41.2,21.6,31.1,23.1,15.5,80,53,23,30.20,30.00,3,1,8,0.04
2013-3-10,74.7,56.8,44.6,34.6,27.6,21.5,49,34,15,30.01,29.88,7,2,17,0.00
2013-3-11,61.5,56.8,52.2,46.9,33.5,23.1,78,43,23,29.89,29.62,10,4,21,0.05
2013-3-12,53.2,38.7,34.7,50.0,34.6,27.5,99,85,72,29.87,29.63,5,2,15,0.46
2013-3-13,35.6,30.4,23.7,30.3,25.3,17.8,94,81,66,29.98,29.79,7,2,17,0.08
2013-3-14,39.7,29.4,22.1,19.9,15.0,9.1,79,56,31,30.08,29.95,6,3,16,0.01
2013-3-15,52.9,40.1,27.7,35.5,23.8,10.5,62,52,44,29.99,29.69,6,2,14,0.02
2013-3-16,59.0,49.3,41.9,51.4,44.4,35.3,99,84,62,29.76,29.49,7,3,18,0.27
2013-3-17,45.1,35.0,30.6,40.3,32.9,29.5,97,92,83,29.96,29.76,4,1,10,0.12
2013-3-18,52.7,43.6,33.3,44.3,37.5,32.5,99,80,65,29.89,29.52,9,3,23,0.52
2013-3-19,52.5,42.4,33.8,46.4,24.1,-0.1,97,55,21,29.84,29.57,10,5,28,0.15
2013-3-20,45.1,35.1,27.7,21.7,12.1,2.6,60,39,23,29.85,29.62,8,4,23,0.00
2013-3-21,27.7,22.8,18.9,14.2,7.2,3.1,72,51,37,29.79,29.67,6,3,15,0.01
2013-3-22,41.0,29.4,20.8,15.3,9.4,5.2,57,44,27,29.85,29.77,6,2,17,0.00
2013-3-23,48.7,34.6,21.7,19.1,13.3,8.0,64,43,25,29.87,29.77,4,1,11,0.00
2013-3-24,46.8,35.1,28.8,33.3,24.3,14.7,92,66,43,29.78,29.29,4,1,12,0.27
2013-3-25,35.1,32.3,29.8,30.6,28.8,26.5,91,87,81,29.59,29.29,4,1,13,0.04
2013-3-26,42.6,33.3,29.8,34.4,29.1,27.5,93,85,67,29.93,29.59,6,2,14,0.54
2013-3-27,42.1,32.4,28.8,34.9,26.3,22.5,89,79,62,30.03,29.92,5,2,16,0.20
2013-3-28,39.6,35.3,30.4,26.7,23.7,21.5,70,62,56,30.10,30.00,5,2,11,0.00
2013-3-29,51.8,42.0,34.7,28.7,24.3,19.0,66,50,29,30.11,30.01,5,2,14,0.02
2013-3-30,57.7,44.7,32.9,29.7,25.4,20.2,73,49,26,30.07,29.85,5,1,14,0.00
2013-3-31,49.1,46.1,42.3,48.3,40.5,26.6,98,83,47,29.85,29.62,5,1,13,0.30
2013-4-1,48.7,41.3,32.5,44.2,33.6,14.0,98,76,41,29.88,29.64,7,3,18,0.06
2013-4-2,42.4,33.5,25.5,16.3,9.9,2.9,59,39,24,30.01,29.86,6,2,17,0.00
2013-4-3,45.9,35.5,25.2,15.7,9.7,3.4,55,35,21,30.16,30.01,6,3,19,0.00
2013-4-4,56.1,40.0,23.9,27.7,14.2,3.2,60,37,20,30.15,29.83,6,1,13,0.00
2013-4-5,60.1,47.4,37.4,37.8,28.3,20.0,88,52,24,29.95,29.77,6,2,21,0.02
2013-4-6,64.8,47.5,27.1,29.7,19.0,10.5,69,36,17,30.07,29.90,6,2,14,0.00
2013-4-7,73.4,62.3,53.6,43.5,35.6,26.4,49,37,29,29.91,29.81,8,4,21,0.00
2013-4-8,77.4,65.6,54.0,50.5,44.0,38.6,63,47,30,29.93,29.81,6,2,17,0.01
2013-4-9,82.8,70.4,60.4,54.5,49.9,45.7,63,50,34,30.00,29.85,6,2,15,0.01
2013-4-10,86.7,74.3,64.4,57.0,52.0,45.9,65,47,34,29.91,29.73,7,3,22,0.00
2013-4-11,82.4,71.5,57.6,55.4,52.1,49.5,80,52,34,29.78,29.51,8,2,17,0.00
2013-4-12,72.7,60.6,48.9,59.7,48.6,33.6,98,67,37,29.74,29.44,7,4,19,0.50
2013-4-13,63.3,50.7,38.8,36.5,31.5,21.6,84,52,22,29.86,29.73,7,3,24,0.00
2013-4-14,69.1,54.0,34.9,39.0,34.2,28.4,88,50,28,29.98,29.83,4,1,9,0.00
2013-4-15,64.8,59.5,52.0,50.1,46.1,35.3,92,63,34,29.99,29.86,8,3,17,0.08
2013-4-16,81.9,68.0,54.9,60.0,53.3,48.1,98,62,41,30.08,29.93,9,2,24,0.40
2013-4-17,72.7,63.9,57.4,62.5,58.6,56.0,98,84,64,30.09,29.96,4,1,8,0.01
2013-4-18,83.1,72.2,58.8,59.0,55.7,51.9,94,58,38,29.97,29.73,13,5,27,0.00
2013-4-19,74.5,60.3,42.8,60.3,50.4,33.7,99,72,50,29.77,29.45,14,5,32,0.41
2013-4-20,53.1,43.1,35.6,33.5,26.0,18.1,74,53,27,30.20,29.77,7,3,21,0.01
2013-4-21,56.7,43.4,28.0,30.3,22.3,14.6,85,47,21,30.33,30.20,5,2,14,0.00
2013-4-22,68.2,53.2,38.7,30.8,26.1,17.7,69,38,18,30.25,30.05,4,2,15,0.00
2013-4-23,72.0,56.8,38.1,38.6,30.1,24.5,69,39,17,30.08,29.85,6,1,13,0.00
2013-4-24,79.5,60.6,39.7,57.1,46.3,33.6,96,62,33,30.03,29.68,9,4,22,0.26
2013-4-25,59.2,45.8,33.1,38.3,31.6,22.3,98,63,27,30.17,30.03,5,2,13,0.04
2013-4-26,63.7,49.5,32.7,38.4,29.6,22.9,91,51,24,30.28,30.16,5,1,12,0.00
2013-4-27,74.3,57.9,38.1,42.1,33.7,26.6,76,44,19,30.20,30.03,4,1,11,0.00
2013-4-28,65.5,58.1,52.9,51.6,47.1,41.2,91,67,53,30.04,29.83,9,3,27,0.22
2013-4-29,68.2,61.2,35.1,54.4,50.3,29.4,90,69,30,30.03,29.88,4,2,15,0.01
2013-4-30,78.3,63.0,48.0,55.3,51.0,47.4,99,69,35,30.08,29.84,4,1,12,0.00
2013-5-1,80.2,66.5,54.7,52.4,46.9,34.0,78,52,29,30.19,30.06,6,2,13,0.00
2013-5-2,78.3,65.4,49.1,51.5,44.0,35.5,76,47,33,30.22,30.07,5,2,11,0.00
2013-5-3,77.4,62.3,46.8,43.2,34.5,19.9,56,38,14,30.13,30.05,9,2,21,0.04
2013-5-4,76.5,59.5,42.3,43.7,34.8,20.8,71,44,14,30.08,29.96,6,1,16,0.00
2013-5-5,77.0,60.7,43.2,42.1,32.6,18.2,76,40,13,30.02,29.88,7,2,17,0.00
2013-5-6,67.8,58.8,52.2,52.7,47.8,40.6,98,68,53,29.94,29.86,4,1,14,0.00
2013-5-7,63.1,56.4,52.5,58.2,54.3,52.0,99,93,75,29.88,29.81,5,1,12,0.46
2013-5-8,66.4,56.5,50.7,54.7,50.6,47.2,99,82,55,29.90,29.80,4,1,11,0.07
2013-5-9,74.3,61.4,54.7,58.4,54.2,50.3,98,79,46,29.97,29.86,4,2,14,0.04
2013-5-10,79.7,66.1,58.1,59.6,55.9,52.0,97,72,45,29.96,29.80,6,2,19,0.11
2013-5-11,64.0,59.4,52.0,60.4,56.6,47.6,99,91,77,29.81,29.75,6,3,15,0.43
2013-5-12,54.7,48.4,40.5,48.0,34.6,26.2,90,61,37,29.99,29.79,6,2,22,0.01
2013-5-13,52.2,43.9,35.8,34.9,31.7,24.9,86,64,37,30.08,29.96,6,1,15,0.00
2013-5-14,68.0,51.4,33.8,40.1,33.1,27.4,84,54,25,30.08,29.85,5,2,14,0.00
2013-5-15,86.9,73.8,62.1,60.1,53.1,39.9,69,50,34,29.88,29.74,8,4,22,0.00
2013-5-16,70.7,64.9,57.6,64.1,56.6,48.7,98,77,47,29.94,29.81,6,2,12,0.37
2013-5-17,79.7,67.5,55.9,61.7,58.1,54.3,99,75,47,30.04,29.94,4,1,11,0.00
2013-5-18,82.6,68.0,58.8,65.3,59.7,56.1,94,76,45,30.04,29.95,5,1,9,0.01
2013-5-19,79.2,68.2,60.8,68.7,61.2,57.2,90,79,59,30.02,29.91,5,1,12,0.11
2013-5-20,81.7,70.4,59.4,67.9,63.5,58.4,98,80,58,30.00,29.91,4,1,11,0.01
2013-5-21,84.6,72.9,61.7,68.9,64.3,58.8,97,76,51,29.95,29.82,4,2,11,0.04
2013-5-22,82.9,69.1,61.0,68.4,62.1,56.5,97,80,54,29.91,29.79,6,2,15,0.59
2013-5-23,78.8,65.7,59.4,64.6,60.8,56.6,99,86,49,29.85,29.75,6,2,15,0.13
2013-5-24,59.4,46.5,36.3,58.5,41.7,32.1,99,85,55,30.18,29.81,5,2,14,0.17
2013-5-25,60.4,45.4,30.4,40.2,34.6,29.1,97,69,35,30.23,30.12,7,1,17,0.00
2013-5-26,66.6,50.8,34.3,40.1,33.2,22.6,96,57,21,30.21,30.12,6,1,12,0.00
2013-5-27,69.8,56.2,40.6,53.9,44.8,34.9,84,66,47,30.17,30.02,3,1,8,0.00
2013-5-28,81.7,72.8,64.8,61.8,57.2,52.7,76,59,43,30.06,29.96,5,3,20,0.00
2013-5-29,85.1,74.3,67.1,65.6,59.7,55.6,79,61,41,30.11,30.00,5,2,15,0.00
2013-5-30,87.1,75.1,63.0,66.8,62.0,35.2,85,65,30,30.16,29.77,4,1,11,4.03
2013-5-31,87.4,75.2,62.1,65.2,60.8,53.7,89,63,43,29.95,29.82,5,1,13,0.00
2013-6-1,87.6,77.1,68.4,67.0,62.9,59.6,79,63,44,29.85,29.68,5,2,15,0.02
2013-6-2,75.0,68.4,35.1,65.7,60.1,29.8,95,77,30,30.08,29.66,6,2,13,4.15
2013-6-3,74.7,64.1,56.7,65.2,60.3,53.6,99,88,66,30.02,29.87,5,1,14,0.09
2013-6-4,73.6,61.0,49.3,54.1,47.5,36.3,99,67,28,30.11,30.01,4,1,10,0.00
2013-6-5,83.3,67.4,50.7,64.7,57.5,46.8,92,72,46,30.08,29.92,6,1,14,0.00
2013-6-6,74.1,67.8,61.9,65.3,62.2,60.0,95,83,69,29.97,29.77,5,2,12,0.34
2013-6-7,67.1,63.6,58.8,66.1,62.6,57.9,99,96,88,29.85,29.72,5,1,10,0.37
2013-6-8,75.7,64.1,57.7,60.7,58.4,57.1,99,83,55,30.09,29.85,3,1,8,0.00
2013-6-9,85.6,71.4,57.7,66.3,60.9,56.6,97,72,42,30.12,30.01,5,1,11,0.00
2013-6-10,77.2,68.4,63.3,69.5,63.9,59.8,97,86,68,30.06,29.83,6,2,17,0.13
2013-6-11,76.1,67.0,61.5,66.2,62.5,59.6,97,86,66,29.94,29.84,4,1,12,0.04
2013-6-12,84.4,74.7,66.0,71.9,67.6,62.2,92,79,63,29.95,29.81,4,2,10,0.04
2013-6-13,77.7,66.7,57.9,70.6,64.3,57.7,99,93,71,29.83,29.59,7,2,23,1.32
2013-6-14,72.1,61.8,54.1,60.0,56.6,53.3,99,84,62,30.05,29.81,4,1,9,0.00
2013-6-15,77.7,64.9,52.0,61.0,56.3,51.4,99,76,46,30.12,30.03,4,1,10,0.02
2013-6-16,73.8,67.4,61.2,68.3,62.1,55.9,93,83,68,30.04,29.97,5,2,16,0.25
2013-6-17,80.6,71.2,65.3,69.9,65.7,63.9,97,84,62,30.00,29.91,3,1,9,0.05
2013-6-18,74.1,66.8,64.0,66.5,63.7,60.6,98,90,67,29.94,29.85,3,0,8,0.22
2013-6-19,78.8,67.6,60.1,65.0,60.9,55.3,98,81,50,30.11,29.93,4,1,9,0.01
2013-6-20,82.6,69.1,55.4,64.8,58.6,54.3,98,73,41,30.20,30.11,3,1,9,0.00
2013-6-21,86.0,72.2,58.1,66.3,61.3,57.3,97,72,44,30.23,30.16,4,1,11,0.00
2013-6-22,86.4,74.1,61.7,67.7,63.9,60.3,96,72,46,30.23,30.09,4,1,12,0.00
2013-6-23,87.4,75.0,62.8,71.3,64.6,60.3,92,72,46,30.18,30.07,3,1,8,0.00
2013-6-24,86.0,75.8,66.4,69.4,66.4,63.1,91,74,51,30.17,30.05,4,1,9,0.00
2013-6-25,86.7,76.6,69.3,70.1,67.3,64.8,90,74,53,30.10,29.96,4,2,13,0.00
2013-6-26,80.8,74.0,69.6,73.3,68.1,65.8,93,82,66,29.97,29.85,4,2,11,0.12
2013-6-27,72.3,68.3,66.7,68.5,66.8,64.8,99,95,79,29.86,29.71,4,1,14,0.45
2013-6-28,80.6,70.1,61.0,71.3,66.8,59.0,99,90,66,29.71,29.57,8,2,19,0.57
2013-6-29,79.5,68.1,57.6,67.7,62.0,57.0,99,82,55,29.73,29.59,5,1,11,0.05
2013-6-30,86.7,73.7,61.0,68.6,63.4,59.6,98,74,41,29.83,29.70,5,1,11,0.34
2013-7-1,82.4,69.7,64.2,70.1,66.5,63.4,99,90,62,29.93,29.82,3,1,8,1.22
2013-7-2,82.6,72.2,65.5,71.9,67.6,63.9,99,87,56,30.06,29.93,4,1,9,0.01
2013-7-3,83.8,74.3,35.1,71.0,63.2,29.4,93,70,30,29.93,29.73,4,1,8,0.01
2013-7-4,87.3,75.4,65.3,71.9,67.1,63.8,98,77,51,29.98,29.85,5,1,12,0.00
2013-7-5,86.9,76.3,68.4,72.6,67.3,63.5,93,75,49,29.93,29.87,6,1,13,0.05
2013-7-6,90.1,77.2,66.7,71.1,67.0,63.9,94,73,51,29.93,29.80,3,1,10,0.00
2013-7-7,80.2,71.3,66.7,70.4,67.2,64.6,97,87,72,29.90,29.79,4,1,14,0.31
2013-7-8,81.9,70.5,62.6,70.0,66.3,61.8,99,88,63,29.91,29.84,3,1,11,0.15
2013-7-9,80.4,72.7,68.2,74.8,69.1,65.3,97,88,72,29.88,29.77,4,1,11,0.28
2013-7-10,86.4,73.6,65.3,73.8,68.6,62.5,99,86,57,29.82,29.64,7,2,20,0.26
2013-7-11,77.4,68.9,64.4,69.9,66.0,63.0,99,91,73,29.73,29.65,3,1,7,0.07
2013-7-12,79.2,67.3,60.8,64.9,62.1,60.1,98,84,55,29.82,29.68,4,1,10,0.01
2013-7-13,84.2,71.4,59.0,68.9,63.9,58.7,99,79,52,29.95,29.79,3,0,9,0.02
2013-7-14,82.8,70.5,65.5,67.3,65.2,63.2,95,85,54,30.02,29.94,4,1,10,0.00
2013-7-15,89.1,76.7,64.9,70.5,66.5,62.9,95,73,48,30.09,30.00,3,1,8,0.00
2013-7-16,90.3,77.1,66.7,73.0,69.0,65.2,96,78,52,30.08,29.99,3,1,12,0.00
2013-7-17,90.0,77.0,67.5,74.8,69.6,64.3,97,79,54,30.05,29.92,5,1,11,0.00
2013-7-18,90.9,78.9,68.4,76.1,71.2,65.1,94,78,55,29.95,29.82,4,1,8,0.02
2013-7-19,89.8,75.9,58.3,74.7,69.0,32.4,92,80,30,29.92,29.80,4,1,14,0.04
2013-7-20,88.5,74.8,65.8,73.7,68.9,64.8,97,83,54,29.85,29.77,5,2,12,0.39
2013-7-21,81.7,72.0,64.6,73.1,67.7,63.7,98,87,62,29.86,29.79,5,1,9,0.07
2013-7-22,84.9,74.0,68.5,72.0,69.1,67.1,97,86,61,29.83,29.67,4,1,14,0.17
2013-7-23,82.8,72.4,65.5,71.0,68.0,63.1,99,87,60,29.70,29.62,5,1,17,0.59
2013-7-24,72.3,66.1,58.6,66.7,62.0,56.8,99,87,64,29.83,29.63,4,1,11,0.02
2013-7-25,75.6,63.1,52.3,61.6,56.1,51.6,99,80,54,29.94,29.81,4,1,9,0.00
2013-7-26,81.9,66.3,51.8,61.6,57.1,50.9,98,75,46,29.95,29.87,3,1,11,0.05
2013-7-27,75.4,68.0,61.9,67.4,63.6,59.4,95,86,70,29.87,29.75,4,1,14,0.08
2013-7-28,77.7,67.3,58.8,65.7,59.9,54.2,98,79,51,29.92,29.72,5,1,15,0.28
2013-7-29,75.6,63.6,52.0,56.8,54.1,50.0,94,73,46,30.06,29.92,4,1,11,0.00
2013-7-30,79.9,68.0,57.4,62.5,58.0,53.7,91,72,45,30.09,30.00,4,1,8,0.00
2013-7-31,75.9,66.0,60.6,65.5,62.2,58.4,98,88,66,30.01,29.84,3,0,8,0.05
2013-8-1,78.1,68.0,64.4,69.7,65.5,63.1,97,92,70,29.84,29.75,3,1,8,0.35
2013-8-2,80.1,69.1,61.2,64.8,61.4,58.2,98,79,50,29.89,29.80,3,1,9,0.00
2013-8-3,77.0,68.1,64.4,66.0,63.1,59.5,98,85,66,29.88,29.83,4,1,11,0.27
2013-8-4,74.8,66.1,56.3,65.2,58.9,51.0,98,80,48,29.95,29.85,5,1,13,0.00
2013-8-5,77.5,64.0,52.0,59.3,55.0,50.9,97,75,44,29.98,29.86,3,0,9,0.00
2013-8-6,82.8,69.2,58.6,63.9,60.2,57.1,97,76,46,29.89,29.83,3,0,7,0.15
2013-8-7,87.3,72.3,65.1,72.5,66.8,61.6,97,84,55,29.87,29.82,10,1,24,0.25
2013-8-8,82.2,72.6,67.5,73.5,69.7,65.8,97,91,71,29.88,29.81,4,1,9,0.98
2013-8-9,78.6,73.0,70.2,72.7,70.2,68.9,98,91,78,29.90,29.81,6,2,16,0.41
2013-8-10,82.6,72.6,65.3,69.7,66.9,62.1,99,84,56,29.97,29.88,2,0,9,0.06
2013-8-11,84.6,73.0,64.2,69.9,65.4,63.1,98,79,50,29.98,29.89,3,0,7,0.02
2013-8-12,83.5,73.3,66.4,71.0,67.4,65.2,97,83,57,29.94,29.80,3,1,8,0.00
2013-8-13,77.5,69.1,63.3,70.2,65.6,57.9,99,89,74,29.80,29.70,4,1,14,0.84
2013-8-14,66.2,58.1,49.8,58.1,50.7,47.6,98,78,56,30.00,29.80,4,1,11,0.00
2013-8-15,75.4,60.5,47.1,57.3,52.7,46.6,99,78,48,30.02,29.93,3,1,8,0.00
2013-8-16,80.1,65.1,52.7,59.5,55.1,50.3,95,73,43,30.00,29.94,3,1,8,0.02
2013-8-17,77.4,66.2,53.1,63.7,56.6,51.6,97,73,46,30.06,30.00,3,0,8,0.01
2013-8-18,75.0,65.7,60.8,67.0,63.1,59.5,98,91,73,30.05,29.99,3,0,6,0.43
2013-8-19,79.3,68.5,63.5,67.9,64.3,62.0,99,87,64,30.00,29.94,3,0,8,0.04
2013-8-20,82.2,69.0,58.6,66.4,62.1,58.1,98,80,52,30.06,29.97,3,0,7,0.04
2013-8-21,81.7,69.9,62.1,71.8,65.0,60.2,95,85,70,30.05,29.97,4,1,9,0.08
2013-8-22,81.0,70.8,61.0,70.0,65.9,59.6,97,85,65,30.01,29.89,4,1,9,0.01
2013-8-23,76.1,67.5,60.3,67.7,64.3,59.4,98,90,70,30.00,29.86,3,0,9,0.48
2013-8-24,81.0,67.1,55.6,64.4,58.5,55.0,99,77,45,30.15,29.99,3,1,9,0.01
2013-8-25,81.9,67.8,56.1,63.4,58.6,54.7,96,75,44,30.23,30.11,3,1,9,0.00
2013-8-26,82.8,69.8,59.0,64.8,60.2,54.4,89,73,49,30.15,29.95,4,1,10,0.00
2013-8-27,78.6,72.8,66.7,72.2,68.3,62.4,92,86,78,29.95,29.85,4,1,10,0.01
2013-8-28,77.7,73.0,70.2,74.0,70.8,67.8,97,93,82,29.88,29.72,5,2,19,0.86
2013-8-29,84.4,74.4,68.9,72.1,69.1,66.2,99,85,58,29.89,29.77,4,1,13,0.01
2013-8-30,86.4,73.7,61.7,70.7,66.6,61.0,98,80,51,29.90,29.76,3,0,8,0.00
2013-8-31,82.6,74.3,68.2,69.5,67.4,64.3,95,80,59,29.78,29.70,6,1,13,0.00
2013-9-1,82.8,72.5,65.8,68.7,66.0,62.9,95,81,54,29.75,29.68,4,1,11,0.00
2013-9-2,82.2,72.7,67.1,71.8,68.1,66.0,97,86,62,29.74,29.66,5,1,18,0.01
2013-9-3,77.7,68.5,57.9,67.3,61.9,55.1,98,81,55,29.90,29.71,4,1,14,0.01
2013-9-4,76.3,63.1,53.2,60.5,56.2,52.4,98,80,51,29.99,29.89,4,0,8,0.00
2013-9-5,77.0,64.9,55.8,62.9,57.6,54.4,96,79,54,30.02,29.96,5,1,13,0.00
2013-9-6,76.1,61.2,49.1,58.9,52.1,48.3,98,75,43,30.06,29.97,3,0,8,0.00
2013-9-7,78.4,63.5,51.1,58.3,53.2,48.2,95,73,36,29.98,29.85,2,1,7,0.00
2013-9-8,83.3,69.9,60.8,68.8,62.4,55.0,96,78,56,29.90,29.81,3,1,8,0.00
2013-9-9,86.2,72.9,61.7,68.6,64.9,60.9,97,78,50,29.97,29.89,4,1,10,0.01
2013-9-10,86.9,77.3,72.0,72.1,68.0,64.0,91,74,57,30.06,29.95,4,2,15,0.00
2013-9-11,86.4,74.7,69.1,72.4,69.0,65.8,92,83,59,30.06,29.93,4,1,9,0.00
2013-9-12,81.1,70.7,64.9,71.4,67.1,61.7,98,89,70,29.93,29.71,6,2,17,0.50
2013-9-13,69.1,60.8,52.2,64.4,55.4,48.0,99,83,57,29.87,29.66,5,2,13,0.33
2013-9-14,63.7,52.5,45.5,49.5,46.4,43.5,99,81,53,29.99,29.87,3,1,8,0.00
2013-9-15,73.6,58.9,45.1,58.5,51.7,43.8,97,79,52,30.01,29.93,6,1,14,0.00
2013-9-16,64.8,59.3,51.8,58.1,55.2,50.4,98,87,68,30.10,29.91,3,1,10,0.27
2013-9-17,73.6,59.0,46.0,57.8,50.9,45.1,99,78,44,30.17,30.05,3,1,8,0.00
2013-9-18,73.6,60.6,47.5,61.0,54.5,46.1,97,82,55,30.08,29.96,3,0,8,0.00
2013-9-19,77.9,66.5,59.0,63.1,60.4,57.6,98,82,52,30.00,29.90,3,0,7,0.01
2013-9-20,78.6,68.6,63.7,70.4,65.1,61.0,95,89,73,29.91,29.73,3,1,8,0.18
2013-9-21,71.1,64.1,56.7,65.2,60.7,56.1,98,89,78,29.74,29.57,4,1,14,0.78
2013-9-22,66.7,57.1,50.0,57.2,52.6,48.1,99,86,58,29.84,29.66,4,1,8,0.02
2013-9-23,61.7,50.3,41.2,48.9,44.9,40.7,99,83,58,29.94,29.84,4,1,13,0.00
2013-9-24,72.1,54.4,40.1,55.2,47.8,39.5,99,81,49,29.92,29.80,4,0,9,0.01
2013-9-25,76.5,61.6,51.6,60.5,56.1,49.8,97,83,50,29.82,29.72,2,0,8,0.01
2013-9-26,75.9,64.3,55.2,61.1,56.2,51.1,98,78,45,29.90,29.77,3,0,8,0.00
2013-9-27,76.6,61.8,48.4,56.9,51.8,46.5,96,73,43,30.01,29.92,2,1,6,0.00
2013-9-28,75.4,62.1,51.4,57.8,52.4,35.5,94,72,30,30.05,29.70,3,1,7,0.00
2013-9-29,75.4,61.0,49.6,59.3,52.7,47.2,95,76,48,29.85,29.73,3,1,8,0.00
2013-9-30,73.8,61.7,53.6,61.8,56.7,51.0,95,84,62,29.77,29.72,4,1,9,0.00
2013-10-1,75.6,63.9,56.1,61.3,57.3,54.0,93,80,56,29.84,29.75,4,1,11,0.00
2013-10-2,79.0,65.4,55.9,62.5,58.2,53.8,95,79,51,29.86,29.79,4,1,9,0.00
2013-10-3,81.5,68.1,59.5,63.6,59.4,55.4,88,75,48,29.84,29.76,3,1,8,0.00
2013-10-4,82.6,69.0,60.1,65.8,61.3,56.8,91,78,50,29.87,29.78,4,1,8,0.00
2013-10-5,83.1,70.6,61.9,65.5,62.6,59.5,92,77,51,29.85,29.73,3,1,9,0.00
2013-10-6,86.2,73.8,65.1,62.5,59.3,56.7,86,62,38,29.73,29.53,6,2,17,0.00
2013-10-7,72.1,56.3,43.9,58.7,50.0,42.2,98,81,60,29.84,29.45,6,2,17,0.44
2013-10-8,68.4,51.9,38.3,50.0,42.5,38.0,99,74,37,29.95,29.83,3,1,9,0.01
2013-10-9,72.7,52.0,40.6,46.4,40.5,30.9,96,69,24,29.96,29.88,3,0,8,0.00
2013-10-10,72.3,58.4,48.4,57.6,51.8,41.0,97,80,56,29.88,29.75,4,1,12,0.05
2013-10-11,61.2,56.6,54.1,55.9,54.3,53.0,99,92,79,29.76,29.71,3,1,8,0.02
2013-10-12,72.9,62.3,55.4,62.3,58.3,55.1,99,88,66,29.83,29.73,2,0,8,0.01
2013-10-13,72.9,63.6,55.2,61.0,58.0,53.7,98,83,61,29.94,29.83,3,0,7,0.01
2013-10-14,67.8,61.9,57.7,62.0,59.1,56.9,97,91,78,29.97,29.89,3,0,10,0.00
2013-10-15,74.3,62.0,51.4,60.8,56.2,47.1,99,83,56,29.91,29.72,3,0,8,0.00
2013-10-16,70.2,61.6,53.4,58.9,51.5,42.1,94,70,55,29.72,29.63,4,1,10,0.00
2013-10-17,66.6,59.0,48.7,63.0,57.1,47.7,97,93,83,29.66,29.42,5,1,16,0.31
2013-10-18,61.5,50.3,42.3,48.1,42.3,38.3,98,76,45,29.75,29.65,4,1,11,0.01
2013-10-19,57.4,47.0,39.4,48.7,42.8,38.1,95,86,68,29.68,29.51,5,1,15,0.12
2013-10-20,58.6,46.1,38.1,39.7,36.8,33.7,96,73,40,29.78,29.66,6,2,14,0.00
2013-10-21,67.6,51.7,38.5,39.7,35.0,31.3,76,56,29,29.77,29.62,6,2,17,0.00
2013-10-22,68.2,44.3,35.1,56.7,36.0,29.4,96,75,30,30.18,29.80,4,1,11,0.00
2013-10-23,41.5,37.3,35.2,40.4,35.4,32.4,98,93,84,29.91,29.67,3,1,9,0.19
2013-10-24,40.3,35.2,30.7,33.8,31.3,27.9,92,86,70,30.09,29.90,6,2,11,0.01
2013-10-25,42.6,34.0,29.7,33.1,29.3,25.9,94,83,61,30.29,30.09,3,1,9,0.04
2013-10-26,52.5,40.6,29.8,28.2,24.6,18.7,81,56,27,30.22,29.89,7,3,19,0.01
2013-10-27,55.4,45.2,37.2,36.8,32.7,27.1,78,62,47,30.04,29.94,4,1,11,0.00
2013-10-28,63.1,48.6,37.8,40.7,36.7,32.9,86,65,37,30.19,30.03,3,1,11,0.01
2013-10-29,62.6,49.0,36.0,48.4,38.3,31.8,93,69,42,30.27,30.18,3,0,8,0.02
2013-10-30,60.1,56.1,50.4,57.2,51.7,40.9,94,86,66,30.18,30.06,2,1,6,0.19
2013-10-31,70.2,64.8,58.1,57.1,53.6,47.5,88,68,45,30.06,29.55,10,4,24,0.12
2013-11-1,71.2,60.3,52.3,56.9,48.7,41.8,94,67,45,29.70,29.47,13,4,34,0.67
2013-11-2,53.8,49.2,41.4,44.8,41.1,37.1,90,74,57,29.92,29.65,4,1,15,0.19
2013-11-3,51.1,42.1,31.5,39.4,32.4,22.6,94,71,35,30.32,29.91,4,1,10,0.05
2013-11-4,57.4,42.4,27.3,33.8,26.9,19.8,85,57,29,30.37,30.28,3,1,9,0.00
2013-11-5,63.1,49.0,36.9,37.7,30.9,19.7,72,52,27,30.40,30.26,3,1,7,0.24
2013-11-6,74.5,61.6,45.1,49.3,46.1,36.8,78,58,39,30.27,29.92,8,4,18,0.06
2013-11-7,63.7,46.9,35.2,53.0,40.4,26.5,96,79,55,30.09,29.87,6,2,17,0.80
2013-11-8,45.7,36.7,28.8,31.8,25.4,21.3,76,64,45,30.21,30.06,5,2,13,0.00
2013-11-9,59.7,44.8,28.8,28.1,20.5,14.5,77,43,20,30.19,29.99,6,2,22,0.01
2013-11-10,51.6,44.0,33.8,35.3,27.7,21.9,66,53,36,30.22,30.00,7,3,20,0.00
2013-11-11,53.2,42.6,27.5,31.1,23.2,16.8,79,50,25,30.23,29.97,4,1,12,0.00
2013-11-12,47.8,30.2,23.7,37.9,25.4,17.4,96,83,51,30.38,29.99,7,0,15,0.17
2013-11-13,33.3,24.7,18.9,22.4,17.6,14.0,86,74,59,30.43,30.30,4,1,12,0.19
2013-11-14,52.2,37.5,25.7,21.5,15.2,10.2,65,42,22,30.31,30.13,6,3,14,0.02
2013-11-15,58.6,46.7,36.3,40.1,22.5,8.9,90,41,21,30.18,30.08,6,2,15,0.15
2013-11-16,65.5,53.2,42.6,51.4,46.1,40.1,97,78,57,30.16,30.01,5,1,11,0.01
2013-11-17,71.1,61.7,50.5,58.1,50.9,44.8,84,68,53,30.02,29.62,14,4,30,0.34
2013-11-18,56.7,49.5,38.8,46.9,34.8,27.4,85,59,35,30.00,29.75,7,4,24,0.01
2013-11-19,38.5,33.8,28.4,28.0,23.4,19.7,74,65,59,30.25,29.99,4,2,14,0.00
2013-11-20,56.7,38.6,24.4,21.2,14.2,6.2,75,42,19,30.28,30.20,5,1,12,0.00
2013-11-21,58.8,47.7,33.4,46.5,35.0,15.2,73,61,46,30.30,30.18,5,1,10,0.00
2013-11-22,59.5,53.4,42.4,54.4,50.0,42.2,99,89,66,30.18,30.03,5,2,14,0.99
2013-11-23,42.4,32.9,21.2,42.0,25.3,6.4,99,74,48,30.22,30.06,8,3,21,0.05
2013-11-24,23.7,17.9,12.7,7.0,1.5,-1.9,62,48,33,30.39,30.22,7,3,18,0.00
2013-11-25,46.2,27.8,11.8,26.8,6.4,-0.8,78,44,21,30.38,30.14,11,1,19,0.00
2013-11-26,42.4,36.2,32.0,42.2,34.6,26.6,99,94,78,30.16,29.63,3,1,8,1.69
2013-11-27,35.1,26.7,20.5,34.3,24.2,13.9,99,90,75,30.06,29.64,3,0,8,0.02
2013-11-28,32.4,24.3,19.6,19.1,16.1,13.6,84,71,54,30.32,30.06,4,0,9,0.21
2013-11-29,37.6,28.8,23.2,22.7,17.5,15.4,73,63,47,30.48,30.31,3,1,8,0.02
2013-11-30,50.4,35.1,21.4,29.5,21.1,13.7,74,57,39,30.42,30.13,5,1,13,0.00
2013-12-1,68.2,42.9,38.1,35.5,26.2,18.8,65,52,30,30.13,29.75,5,2,13,0.00
2013-12-2,53.1,44.9,39.7,36.8,33.6,30.9,76,65,52,29.75,29.59,4,1,10,0.00
2013-12-3,57.2,46.6,38.5,41.0,36.7,32.6,80,69,51,29.68,29.60,4,1,8,0.00
2013-12-4,67.6,55.8,45.7,47.9,43.9,37.2,79,65,48,29.77,29.66,6,2,12,0.00
2013-12-5,70.3,62.6,50.5,57.5,52.7,47.5,97,71,54,29.78,29.67,7,3,18,0.52
2013-12-6,50.4,37.2,31.1,49.5,36.3,30.1,99,97,94,29.95,29.77,5,2,14,1.97
2013-12-7,31.1,27.6,23.7,30.1,24.6,19.3,97,89,82,30.24,29.94,3,0,9,0.01
2013-12-8,68.2,33.4,22.3,39.0,29.3,18.8,98,87,30,30.22,29.74,4,0,8,0.50
2013-12-9,47.3,37.9,31.3,46.8,36.6,27.6,99,95,86,29.86,29.69,4,2,13,0.44
2013-12-10,31.3,27.1,21.7,27.7,20.2,10.8,90,76,58,29.95,29.70,0,0,0,0.00
2013-12-11,35.2,26.4,17.4,17.3,13.4,8.4,73,58,43,30.06,29.93,5,1,14,0.09
2013-12-12,27.0,20.7,16.2,14.9,3.6,-4.4,62,48,29,30.13,29.98,5,3,14,0.00
2013-12-13,39.2,28.2,19.6,13.2,7.7,3.3,51,42,28,29.98,29.90,6,2,15,0.00
2013-12-14,48.4,39.7,32.4,41.3,31.3,9.4,90,73,34,29.92,29.41,7,2,21,0.44
2013-12-15,43.5,30.8,26.1,39.6,25.6,18.5,91,81,69,29.73,29.39,6,3,24,0.11
2013-12-16,30.9,28.3,25.7,27.0,23.1,18.8,86,81,71,29.82,29.72,4,1,17,0.00
2013-12-17,39.6,34.4,28.0,33.5,30.0,22.3,90,84,73,29.76,29.63,6,2,15,0.58
2013-12-18,35.1,29.3,25.7,23.0,18.6,13.9,81,64,46,29.91,29.76,6,1,14,0.01
2013-12-19,59.2,48.7,32.5,30.2,20.0,7.1,46,32,24,29.89,29.78,7,3,27,0.00
2013-12-20,60.8,56.2,51.1,49.3,35.1,17.7,83,48,25,29.80,29.69,8,4,21,0.05
2013-12-21,73.4,66.1,59.9,56.5,51.6,48.3,73,60,46,29.71,29.49,12,5,31,0.00
2013-12-22,73.2,60.7,57.0,57.4,52.5,48.2,93,75,53,29.72,29.43,16,5,40,0.81
2013-12-23,57.7,40.0,29.1,50.8,36.8,20.3,97,88,70,29.98,29.68,5,1,15,0.50
2013-12-24,29.1,22.9,11.5,22.0,11.8,0.1,81,63,38,30.15,29.92,0,0,0,0.01
2013-12-25,37.2,22.9,9.7,18.0,8.7,-0.1,71,56,29,30.13,29.89,3,0,10,0.00
2013-12-26,39.6,32.8,28.0,25.0,18.3,12.9,83,55,39,30.04,29.86,6,2,19,0.01
2013-12-27,45.9,34.4,25.7,20.2,14.2,11.4,57,44,26,30.09,30.01,4,2,15,0.00
2013-12-28,52.2,42.8,36.3,23.8,18.4,14.4,45,38,26,30.03,29.80,6,3,14,0.00
2013-12-29,43.5,40.4,36.9,42.1,37.4,21.6,98,90,43,29.80,29.39,5,2,17,1.33
2013-12-30,38.5,30.2,26.2,37.4,26.1,20.1,97,85,76,29.85,29.61,4,1,12,0.05
2013-12-31,28.0,26.1,23.0,21.8,16.5,12.8,77,66,55,30.00,29.80,0,0,0,0.00
2014-1-1,50.9,34.6,23.5,23.3,18.7,13.7,67,53,29,30.01,29.74,6,1,11,0.01
2014-1-2,43.2,32.1,13.6,32.1,22.5,8.1,89,69,48,29.74,29.35,4,1,9,0.18